This is the latest recevied weather packets stored in our database for station/object PY2XH-13. If no packets are shown the sender has not sent any weather packets the latest 10 day(s).
| Time | Temp. | Humidity | Pressure | Rain* | Wind** | Luminosity | Snow |
|---|---|---|---|---|---|---|---|
| 1787946365 | 25.56° C | 47% | 1025.1 hPa | - | - | - | - |
| 1787944565 | 26.11° C | 45% | 1025 hPa | - | - | - | - |
| 1787942765 | 24.44° C | 51% | 1024.9 hPa | - | - | - | - |
| 1787940964 | 26.11° C | 45% | 1025 hPa | - | - | - | - |
| 1787939164 | 26.11° C | 44% | 1025.4 hPa | - | - | - | - |
| 1787937364 | 26.11° C | 44% | 1025.9 hPa | - | - | - | - |
| 1787935564 | 23.89° C | 54% | 1026.2 hPa | - | - | - | - |
| 1787933764 | 23.33° C | 56% | 1026.4 hPa | - | - | - | - |
| 1787931964 | 23.33° C | 57% | 1026.9 hPa | - | - | - | - |
| 1787930164 | 23.33° C | 56% | 1027.3 hPa | - | - | - | - |
| 1787928364 | 22.78° C | 61% | 1027.8 hPa | - | - | - | - |
| 1787924765 | 22.22° C | 61% | 1028.6 hPa | - | - | - | - |
| 1787922965 | 22.22° C | 63% | 1029 hPa | - | - | - | - |
| 1787921165 | 21.67° C | 65% | 1029.5 hPa | - | - | - | - |
| 1787919364 | 21.11° C | 65% | 1029.4 hPa | - | - | - | - |
| 1787917564 | 21.11° C | 66% | 1029.2 hPa | - | - | - | - |
| 1787915764 | 21.11° C | 67% | 1028.8 hPa | - | - | - | - |
| 1787913964 | 21.11° C | 67% | 1028.9 hPa | - | - | - | - |
| 1787912164 | 21.11° C | 69% | 1028.9 hPa | - | - | - | - |
| 1787910364 | 21.11° C | 70% | 1028.7 hPa | - | - | - | - |
| 1787908564 | 21.67° C | 68% | 1028.7 hPa | - | - | - | - |
| 1787906764 | 21.67° C | 68% | 1028.5 hPa | - | - | - | - |
| 1787904964 | 21.67° C | 68% | 1028.2 hPa | - | - | - | - |
| 1787903164 | 21.67° C | 68% | 1028 hPa | - | - | - | - |
| 1787901364 | 21.67° C | 68% | 1028.1 hPa | - | - | - | - |
* Rain since midnight (hover to see other rain measurements)
** Current wind speed in m/s (hover to see current wind gust speed)